Pourquoi Pas — FMCY — position and weather

sailwx.info

Track history (hours):
 
Tides and Currents Weather Stations Pressure Air Temp Water Temp Dewpoint Dewpoint Depression Visibility Wind Speed Wind Dir Waves Ship Positions

Oceanographic research ship Pourquoi Pas (France)

Last reported at 2019-Oct-13 21:38 UTC. Time now 2019-Oct-14 10:46 UTC.
Position N 61°04' E 002°09'.

Length 108 m; beam 20 m.

Type: Dredging. MMSI: 228207600.

Date/timePositionNaut miles runAvg speedWind from/ knotsBaromVisibWave heightAir tempDewpointWater temp
2019-Oct-13 21:38N 61°04' E 002°09'43211.0
2019-Oct-12 06:16N 67°37' E 009°09'1412.0
2019-Oct-12 05:06N 67°49' E 009°26'211.7
2019-Oct-12 04:55N 67°51' E 009°28'611.9
2019-Oct-12 04:25N 67°56' E 009°36'512.0
2019-Oct-12 03:59N 68°01' E 009°42'612.2
2019-Oct-12 03:30N 68°06' E 009°49'612.3
2019-Oct-12 03:00N 68°11' E 009°59'612.6
2019-Oct-12 02:30N 68°15' E 010°12'612.4
2019-Oct-12 02:00N 68°19' E 010°26'612.1
2019-Oct-12 01:29N 68°21' E 010°41'611.6
2019-Oct-12 01:00N 68°24' E 010°54'510.8
2019-Oct-12 00:30N 68°26' E 011°08'510.8
2019-Oct-12 00:00N 68°28' E 011°21'611.1
2019-Oct-11 23:29N 68°30' E 011°36'611.7
2019-Oct-11 23:00N 68°32' E 011°50'611.7
2019-Oct-11 22:30N 68°35' E 012°04'611.6
2019-Oct-11 22:00N 68°37' E 012°19'611.4
2019-Oct-11 21:30N 68°40' E 012°33'611.3
2019-Oct-11 21:00N 68°42' E 012°47'611.6
2019-Oct-11 20:30N 68°44' E 013°02'611.7
2019-Oct-11 20:00N 68°46' E 013°17'611.7
2019-Oct-11 19:30N 68°49' E 013°31'611.1
2019-Oct-11 19:00N 68°53' E 013°43'611.4
2019-Oct-11 18:30N 68°57' E 013°52'611.3
2019-Oct-11 18:00N 69°02' E 014°03'611.3
2019-Oct-11 17:30N 69°06' E 014°14'611.6
2019-Oct-11 17:00N 69°10' E 014°26'511.0
2019-Oct-11 16:30N 69°13' E 014°36'510.8
2019-Oct-11 16:00N 69°17' E 014°47'510.8
2019-Oct-11 15:30N 69°21' E 014°58'611.1
2019-Oct-11 15:00N 69°25' E 015°09'611.5
2019-Oct-11 14:30N 69°29' E 015°21'611.5
2019-Oct-11 14:00N 69°33' E 015°33'510.7
2019-Oct-11 13:30N 69°35' E 015°46'511.2
2019-Oct-11 13:00N 69°36' E 016°02'611.5
2019-Oct-11 12:30N 69°37' E 016°19'612.0
2019-Oct-11 12:00N 69°37' E 016°36'612.1
2019-Oct-11 11:30N 69°38' E 016°53'612.0
2019-Oct-11 11:00N 69°39' E 017°10'612.0
2019-Oct-11 10:30N 69°39' E 017°27'612.1
2019-Oct-11 10:00N 69°40' E 017°45'612.2
2019-Oct-11 09:30N 69°35' E 017°56'611.3
2019-Oct-11 09:00N 69°31' E 018°07'713.5
2019-Oct-11 08:30N 69°32' E 018°27'612.7
2019-Oct-11 08:00N 69°33' E 018°44'612.3
2019-Oct-11 07:30N 69°39' E 018°53'510.6
2019-Oct-11 06:59N 69°43' E 019°01'3 5.2
2019-Oct-11 06:30N 69°41' E 018°60'0 0.0
2019-Oct-11 06:00N 69°41' E 018°60'0 0.0
2019-Oct-11 05:30N 69°41' E 018°60'0 0.0
2019-Oct-11 05:00N 69°41' E 018°60'0 0.0
2019-Oct-11 04:30N 69°41' E 018°60'0 0.0
2019-Oct-11 04:00N 69°41' E 018°60'0 0.0
2019-Oct-11 03:29N 69°41' E 018°60'0 0.0
2019-Oct-11 02:59N 69°41' E 018°60'0 0.0
2019-Oct-11 02:29N 69°41' E 018°60'0 0.0
2019-Oct-11 01:59N 69°41' E 018°60'0 0.0
2019-Oct-11 01:29N 69°41' E 018°60'0 0.0
2019-Oct-11 00:59N 69°41' E 018°60'0 0.0
2019-Oct-11 00:29N 69°41' E 018°60'0 0.0
2019-Oct-10 23:59N 69°41' E 018°60'0 0.0
2019-Oct-10 23:29N 69°41' E 018°60'0 0.0
2019-Oct-10 22:59N 69°41' E 018°59'0 0.0
2019-Oct-10 22:29N 69°41' E 018°59'0 0.0
2019-Oct-10 21:59N 69°41' E 018°60'0 0.0
2019-Oct-10 21:29N 69°41' E 018°60'0 0.0
2019-Oct-10 20:59N 69°41' E 018°60'0 0.0
2019-Oct-10 20:29N 69°41' E 018°60'0 0.0
2019-Oct-10 19:59N 69°41' E 018°60'0 0.0
2019-Oct-10 19:29N 69°41' E 018°60'0 0.0
2019-Oct-10 18:59N 69°41' E 018°60'0 0.0
2019-Oct-10 18:29N 69°41' E 018°60'0 0.0
2019-Oct-10 17:59N 69°41' E 018°60'0 0.0
2019-Oct-10 17:29N 69°41' E 018°60'0 0.0
2019-Oct-10 16:59N 69°41' E 018°60'0 0.0
2019-Oct-10 16:29N 69°41' E 018°60'0 0.0
2019-Oct-10 15:59N 69°41' E 018°60'0 0.0
2019-Oct-10 15:29N 69°41' E 018°60'0 0.0
2019-Oct-10 14:59N 69°41' E 018°60'0 0.0
2019-Oct-10 14:29N 69°41' E 018°60'0 0.0
2019-Oct-10 13:59N 69°41' E 018°60'0 0.0
2019-Oct-10 13:29N 69°41' E 018°60'0 0.0
2019-Oct-10 12:59N 69°41' E 018°60'0 0.0
2019-Oct-10 12:29N 69°41' E 018°60'0 0.0
2019-Oct-10 11:59N 69°41' E 018°60'0 0.0
2019-Oct-10 11:29N 69°41' E 018°60'0 0.0
2019-Oct-10 10:59N 69°41' E 018°60'0 0.0
2019-Oct-10 10:29N 69°41' E 018°60'0 0.0
2019-Oct-10 09:59N 69°41' E 018°60'0 0.0
2019-Oct-10 09:29N 69°41' E 018°60'0 0.0
2019-Oct-10 08:59N 69°41' E 018°60'0 0.0
2019-Oct-10 08:29N 69°41' E 018°60'0 0.0
2019-Oct-10 07:59N 69°41' E 018°60'0 0.0
2019-Oct-10 07:29N 69°41' E 018°59'0 0.0
2019-Oct-10 06:59N 69°41' E 018°60'0 0.0
2019-Oct-10 06:29N 69°41' E 018°60'0 0.0
2019-Oct-10 05:59N 69°41' E 018°60'0 0.0
2019-Oct-10 05:29N 69°41' E 018°60'0 0.0
2019-Oct-10 04:59N 69°41' E 018°60'0 0.0
2019-Oct-10 04:29N 69°41' E 018°60'0 0.0
2019-Oct-10 03:59N 69°41' E 018°60'0 0.0
2019-Oct-10 03:29N 69°41' E 018°60'0 0.0
2019-Oct-10 02:59N 69°41' E 018°60'0 0.0
2019-Oct-10 02:29N 69°41' E 018°60'0 0.0
2019-Oct-10 01:59N 69°41' E 018°60'0 0.0
2019-Oct-10 01:29N 69°41' E 018°60'0 0.0
2019-Oct-10 00:59N 69°41' E 018°60'0 0.0
2019-Oct-10 00:29N 69°41' E 018°60'0 0.0
2019-Oct-09 23:59N 69°41' E 018°60'0 0.0
2019-Oct-09 23:29N 69°41' E 018°60'0 0.0
2019-Oct-09 22:59N 69°41' E 018°60'0 0.0
2019-Oct-09 22:29N 69°41' E 018°60'0 0.0
2019-Oct-09 21:59N 69°41' E 018°60'0 0.0
2019-Oct-09 21:29N 69°41' E 018°60'0 0.0
2019-Oct-09 20:59N 69°41' E 018°60'0 0.0
2019-Oct-09 20:29N 69°41' E 018°60'0 0.0
2019-Oct-09 19:59N 69°41' E 018°60'0 0.0
2019-Oct-09 19:29N 69°41' E 018°60'0 0.0
2019-Oct-09 18:59N 69°41' E 018°60'0 0.0
2019-Oct-09 18:29N 69°41' E 018°60'0 0.0
2019-Oct-09 17:59N 69°41' E 018°60'0 0.0
2019-Oct-09 17:29N 69°41' E 018°60'0 0.0
2019-Oct-09 16:59N 69°41' E 018°60'0 0.0
2019-Oct-09 16:29N 69°41' E 018°60'0 0.0
2019-Oct-09 15:59N 69°41' E 018°60'0 0.0
2019-Oct-09 15:29N 69°41' E 018°60'0 0.0
2019-Oct-09 14:59N 69°41' E 018°60'0 0.0
2019-Oct-09 14:29N 69°41' E 018°60'0 0.0
2019-Oct-09 13:59N 69°41' E 018°60'0 0.0
2019-Oct-09 13:29N 69°41' E 018°60'0 0.0
2019-Oct-09 12:59N 69°41' E 018°60'0 0.0
2019-Oct-09 12:29N 69°41' E 018°60'0 0.0
2019-Oct-09 11:59N 69°41' E 018°60'0 0.0
2019-Oct-09 11:29N 69°41' E 018°60'0 0.0
2019-Oct-09 10:59N 69°41' E 018°60'0 0.0
2019-Oct-09 10:29N 69°41' E 018°60'0 0.0
2019-Oct-09 09:59N 69°41' E 018°60'0 0.0
2019-Oct-09 09:29N 69°41' E 018°60'0 0.0
2019-Oct-09 08:59N 69°41' E 018°60'0 0.0
2019-Oct-09 08:29N 69°41' E 018°60'0 0.0
2019-Oct-09 08:00N 69°41' E 018°60'0 0.2
2019-Oct-09 07:30N 69°41' E 018°60'4 7.4
2019-Oct-09 07:00N 69°44' E 019°04'612.2
2019-Oct-09 06:30N 69°48' E 019°18'713.9
2019-Oct-09 06:00N 69°50' E 019°37'611.3
2019-Oct-09 05:30N 69°53' E 019°50'611.8
2019-Oct-09 04:59N 69°58' E 019°60'612.2
2019-Oct-09 04:30N 70°03' E 020°09'612.5
2019-Oct-09 04:00N 70°09' E 020°16'713.0
2019-Oct-09 03:30N 70°16' E 020°22'713.7
2019-Oct-09 03:00N 70°22' E 020°20'612.1
2019-Oct-09 02:30N 70°28' E 020°13'713.2
2019-Oct-09 02:00N 70°27' E 019°52'612.6
2019-Oct-09 01:30N 70°26' E 019°34'4 8.8
2019-Oct-09 01:00N 70°30' E 019°25'611.5
2019-Oct-09 00:30N 70°35' E 019°26'611.5
2019-Oct-09 00:00N 70°41' E 019°23'611.6
2019-Oct-08 23:30N 70°47' E 019°21'611.6
2019-Oct-08 23:00N 70°53' E 019°20'611.6
2019-Oct-08 22:30N 70°59' E 019°20'611.4
2019-Oct-08 22:00N 71°04' E 019°14'611.3
2019-Oct-08 21:28N 71°09' E 019°04'16811.1
2019-Oct-08 06:16N 73°56' E 017°55'311.1
2019-Oct-08 06:00N 73°58' E 017°51'611.2
2019-Oct-08 05:30N 74°04' E 017°43'611.2
2019-Oct-08 05:00N 74°09' E 017°36'511.2
2019-Oct-08 04:30N 74°14' E 017°28'611.2
2019-Oct-08 04:00N 74°19' E 017°20'611.4
2019-Oct-08 03:30N 74°24' E 017°13'611.5
2019-Oct-08 03:00N 74°30' E 017°04'611.6
2019-Oct-08 02:30N 74°35' E 016°56'611.9
2019-Oct-08 02:00N 74°41' E 016°48'612.0
2019-Oct-08 01:30N 74°46' E 016°39'10911.6
2019-Oct-07 16:04N 76°27' E 013°55'210.8
2019-Oct-07 15:52N 76°29' E 013°52'410.9
2019-Oct-07 15:30N 76°33' E 013°45'3 6.0
2019-Oct-07 15:00N 76°36' E 013°40'1 1.7
2019-Oct-07 14:30N 76°35' E 013°42'0 0.5
2019-Oct-07 13:37N 76°35' E 013°44'6 9.1
2019-Oct-07 12:58N 76°39' E 014°03'1 2.6
2019-Oct-07 12:28N 76°40' E 014°07'1 1.6
2019-Oct-07 12:00N 76°40' E 014°10'510.5
2019-Oct-07 11:30N 76°36' E 014°25'2 4.2
2019-Oct-07 11:00N 76°35' E 014°32'3 5.9
2019-Oct-07 10:30N 76°32' E 014°37'5 9.5
2019-Oct-07 09:59N 76°29' E 014°53'2 2.8
2019-Oct-07 09:25N 76°28' E 014°58'1 2.9
2019-Oct-07 09:00N 76°28' E 014°53'510.1
2019-Oct-07 08:30N 76°28' E 014°32'510.6
2019-Oct-07 08:00N 76°28' E 014°09'1 1.0
2019-Oct-07 07:08N 76°29' E 014°07'0 0.5
2019-Oct-07 06:55N 76°29' E 014°07'1 1.3
2019-Oct-07 06:30N 76°29' E 014°10'1 1.0
2019-Oct-07 05:57N 76°29' E 014°07'0 0.6
2019-Oct-07 05:26N 76°29' E 014°07'3 0.2
2019-Oct-06 16:03N 76°27' E 013°59'1 5.7
2019-Oct-06 15:49N 76°28' E 014°03'0 0.0
2019-Oct-06 15:05N 76°28' E 014°03'0 0.2
2019-Oct-06 15:00N 76°28' E 014°03'1 2.0
2019-Oct-06 14:30N 76°29' E 014°06'0 0.1
2019-Oct-06 13:59N 76°29' E 014°06'1 2.2
2019-Oct-06 13:30N 76°29' E 014°09'0 0.1
2019-Oct-06 13:00N 76°29' E 014°09'1 2.2
2019-Oct-06 12:30N 76°30' E 014°12'1 2.2
2019-Oct-06 11:59N 76°31' E 014°16'0 0.3
2019-Oct-06 11:30N 76°31' E 014°16'1 1.9
2019-Oct-06 11:00N 76°32' E 014°19'1 2.1
2019-Oct-06 10:29N 76°32' E 014°22'1 2.3
2019-Oct-06 10:00N 76°33' E 014°26'0 0.1
2019-Oct-06 09:30N 76°33' E 014°26'1 2.1
2019-Oct-06 09:00N 76°34' E 014°29'0 0.0
2019-Oct-06 08:30N 76°34' E 014°29'1 2.3
2019-Oct-06 08:00N 76°35' E 014°33'1 2.1
2019-Oct-06 07:30N 76°35' E 014°36'0 0.7
2019-Oct-06 07:00N 76°36' E 014°37'1 1.3
2019-Oct-06 06:30N 76°36' E 014°39'1 2.0
2019-Oct-06 06:00N 76°37' E 014°42'1 1.3
2019-Oct-06 05:30N 76°37' E 014°44'0 0.8
2019-Oct-06 05:00N 76°37' E 014°45'1 2.0
2019-Oct-06 04:29N 76°38' E 014°49'0 0.3
2019-Oct-06 04:00N 76°38' E 014°49'1 1.8
2019-Oct-06 03:30N 76°39' E 014°52'1 1.7
2019-Oct-06 03:00N 76°39' E 014°55'0 0.4
2019-Oct-06 02:30N 76°40' E 014°55'2 3.4
2019-Oct-06 02:00N 76°40' E 014°48'611.3
2019-Oct-06 01:30N 76°40' E 014°23'3 6.3
2019-Oct-06 01:00N 76°41' E 014°10'1 1.6
2019-Oct-06 00:29N 76°40' E 014°07'0 0.4
2019-Oct-06 00:00N 76°40' E 014°07'1 1.9
2019-Oct-05 23:30N 76°39' E 014°04'1 1.9
2019-Oct-05 23:00N 76°39' E 014°01'1 1.9
2019-Oct-05 22:30N 76°38' E 013°58'0 0.1
2019-Oct-05 22:00N 76°38' E 013°58'1 1.9
2019-Oct-05 21:30N 76°37' E 013°55'0 1.0
2019-Oct-05 21:00N 76°37' E 013°53'0 0.9
2019-Oct-05 20:30N 76°37' E 013°52'1 1.9
2019-Oct-05 20:00N 76°36' E 013°49'0 0.4
2019-Oct-05 19:30N 76°36' E 013°49'1 1.5
2019-Oct-05 19:00N 76°35' E 013°46'0 0.1
2019-Oct-05 18:30N 76°35' E 013°47'1 2.0
2019-Oct-05 18:00N 76°35' E 013°44'0 0.0
2019-Oct-05 17:29N 76°35' E 013°44'1 1.4
2019-Oct-05 17:00N 76°34' E 013°46'5 9.6
2019-Oct-05 16:30N 76°30' E 013°59'5 9.7
2019-Oct-05 16:00N 76°27' E 014°12'6 2.1
2019-Oct-05 13:11N 76°24' E 014°35'0 0.9
2019-Oct-05 12:46N 76°24' E 014°36'0 0.0
2019-Oct-05 12:30N 76°24' E 014°36'1 2.3
2019-Oct-05 11:59N 76°25' E 014°39'1 2.1
2019-Oct-05 11:30N 76°26' E 014°43'0 0.5
2019-Oct-05 11:00N 76°26' E 014°43'1 2.3
2019-Oct-05 10:30N 76°27' E 014°47'1 1.4
2019-Oct-05 10:00N 76°27' E 014°49'1 1.1
2019-Oct-05 09:30N 76°28' E 014°51'1 2.0
2019-Oct-05 08:55N 76°28' E 014°54'0 0.7
2019-Oct-05 08:29N 76°29' E 014°53'4 8.5
2019-Oct-05 08:00N 76°32' E 014°42'1 1.9
2019-Oct-05 07:30N 76°33' E 014°45'2 4.5
2019-Oct-05 07:00N 76°34' E 014°54'0 0.7
2019-Oct-05 06:29N 76°33' E 014°53'2 4.9
2019-Oct-05 06:00N 76°32' E 014°59'612.1
2019-Oct-05 05:30N 76°27' E 015°15'11511.7
2019-Oct-04 19:40N 74°55' E 019°54'210.0
2019-Oct-04 19:30N 74°54' E 019°58'5 9.8
2019-Oct-04 19:00N 74°50' E 020°09'5 9.8
2019-Oct-04 18:30N 74°46' E 020°20'510.3
2019-Oct-04 17:59N 74°42' E 020°32'510.4
2019-Oct-04 17:30N 74°38' E 020°44'510.5
2019-Oct-04 17:00N 74°34' E 020°56'910.9
2019-Oct-04 16:09N 74°26' E 021°17'  
Track history (hours):
 
Tides and Currents Weather Stations Pressure Air Temp Water Temp Dewpoint Dewpoint Depression Visibility Wind Speed Wind Dir Waves Ship Positions

Oceanographic research ship Pourquoi Pas (France)

Last reported at 2019-Oct-13 21:38 UTC. Time now 2019-Oct-14 10:46 UTC.
Position N 61°04' E 002°09'.

Length 108 m; beam 20 m.

Type: Dredging. MMSI: 228207600.

Date/timePositionNaut miles runAvg speedWind from/ knotsBaromVisibWave heightAir tempDewpointWater temp
2019-Oct-13 21:38N 61°04' E 002°09'43211.0
2019-Oct-12 06:16N 67°37' E 009°09'1412.0
2019-Oct-12 05:06N 67°49' E 009°26'211.7
2019-Oct-12 04:55N 67°51' E 009°28'611.9
2019-Oct-12 04:25N 67°56' E 009°36'512.0
2019-Oct-12 03:59N 68°01' E 009°42'612.2
2019-Oct-12 03:30N 68°06' E 009°49'612.3
2019-Oct-12 03:00N 68°11' E 009°59'612.6
2019-Oct-12 02:30N 68°15' E 010°12'612.4
2019-Oct-12 02:00N 68°19' E 010°26'612.1
2019-Oct-12 01:29N 68°21' E 010°41'611.6
2019-Oct-12 01:00N 68°24' E 010°54'510.8
2019-Oct-12 00:30N 68°26' E 011°08'510.8
2019-Oct-12 00:00N 68°28' E 011°21'611.1
2019-Oct-11 23:29N 68°30' E 011°36'611.7
2019-Oct-11 23:00N 68°32' E 011°50'611.7
2019-Oct-11 22:30N 68°35' E 012°04'611.6
2019-Oct-11 22:00N 68°37' E 012°19'611.4
2019-Oct-11 21:30N 68°40' E 012°33'611.3
2019-Oct-11 21:00N 68°42' E 012°47'611.6
2019-Oct-11 20:30N 68°44' E 013°02'611.7
2019-Oct-11 20:00N 68°46' E 013°17'611.7
2019-Oct-11 19:30N 68°49' E 013°31'611.1
2019-Oct-11 19:00N 68°53' E 013°43'611.4
2019-Oct-11 18:30N 68°57' E 013°52'611.3
2019-Oct-11 18:00N 69°02' E 014°03'611.3
2019-Oct-11 17:30N 69°06' E 014°14'611.6
2019-Oct-11 17:00N 69°10' E 014°26'511.0
2019-Oct-11 16:30N 69°13' E 014°36'510.8
2019-Oct-11 16:00N 69°17' E 014°47'510.8
2019-Oct-11 15:30N 69°21' E 014°58'611.1
2019-Oct-11 15:00N 69°25' E 015°09'611.5
2019-Oct-11 14:30N 69°29' E 015°21'611.5
2019-Oct-11 14:00N 69°33' E 015°33'510.7
2019-Oct-11 13:30N 69°35' E 015°46'511.2
2019-Oct-11 13:00N 69°36' E 016°02'611.5
2019-Oct-11 12:30N 69°37' E 016°19'612.0
2019-Oct-11 12:00N 69°37' E 016°36'612.1
2019-Oct-11 11:30N 69°38' E 016°53'612.0
2019-Oct-11 11:00N 69°39' E 017°10'612.0
2019-Oct-11 10:30N 69°39' E 017°27'612.1
2019-Oct-11 10:00N 69°40' E 017°45'612.2
2019-Oct-11 09:30N 69°35' E 017°56'611.3
2019-Oct-11 09:00N 69°31' E 018°07'713.5
2019-Oct-11 08:30N 69°32' E 018°27'612.7
2019-Oct-11 08:00N 69°33' E 018°44'612.3
2019-Oct-11 07:30N 69°39' E 018°53'510.6
2019-Oct-11 06:59N 69°43' E 019°01'3 5.2
2019-Oct-11 06:30N 69°41' E 018°60'0 0.0
2019-Oct-11 06:00N 69°41' E 018°60'0 0.0
2019-Oct-11 05:30N 69°41' E 018°60'0 0.0
2019-Oct-11 05:00N 69°41' E 018°60'0 0.0
2019-Oct-11 04:30N 69°41' E 018°60'0 0.0
2019-Oct-11 04:00N 69°41' E 018°60'0 0.0
2019-Oct-11 03:29N 69°41' E 018°60'0 0.0
2019-Oct-11 02:59N 69°41' E 018°60'0 0.0
2019-Oct-11 02:29N 69°41' E 018°60'0 0.0
2019-Oct-11 01:59N 69°41' E 018°60'0 0.0
2019-Oct-11 01:29N 69°41' E 018°60'0 0.0
2019-Oct-11 00:59N 69°41' E 018°60'0 0.0
2019-Oct-11 00:29N 69°41' E 018°60'0 0.0
2019-Oct-10 23:59N 69°41' E 018°60'0 0.0
2019-Oct-10 23:29N 69°41' E 018°60'0 0.0
2019-Oct-10 22:59N 69°41' E 018°59'0 0.0
2019-Oct-10 22:29N 69°41' E 018°59'0 0.0
2019-Oct-10 21:59N 69°41' E 018°60'0 0.0
2019-Oct-10 21:29N 69°41' E 018°60'0 0.0
2019-Oct-10 20:59N 69°41' E 018°60'0 0.0
2019-Oct-10 20:29N 69°41' E 018°60'0 0.0
2019-Oct-10 19:59N 69°41' E 018°60'0 0.0
2019-Oct-10 19:29N 69°41' E 018°60'0 0.0
2019-Oct-10 18:59N 69°41' E 018°60'0 0.0
2019-Oct-10 18:29N 69°41' E 018°60'0 0.0
2019-Oct-10 17:59N 69°41' E 018°60'0 0.0
2019-Oct-10 17:29N 69°41' E 018°60'0 0.0
2019-Oct-10 16:59N 69°41' E 018°60'0 0.0
2019-Oct-10 16:29N 69°41' E 018°60'0 0.0
2019-Oct-10 15:59N 69°41' E 018°60'0 0.0
2019-Oct-10 15:29N 69°41' E 018°60'0 0.0
2019-Oct-10 14:59N 69°41' E 018°60'0 0.0
2019-Oct-10 14:29N 69°41' E 018°60'0 0.0
2019-Oct-10 13:59N 69°41' E 018°60'0 0.0
2019-Oct-10 13:29N 69°41' E 018°60'0 0.0
2019-Oct-10 12:59N 69°41' E 018°60'0 0.0
2019-Oct-10 12:29N 69°41' E 018°60'0 0.0
2019-Oct-10 11:59N 69°41' E 018°60'0 0.0
2019-Oct-10 11:29N 69°41' E 018°60'0 0.0
2019-Oct-10 10:59N 69°41' E 018°60'0 0.0
2019-Oct-10 10:29N 69°41' E 018°60'0 0.0
2019-Oct-10 09:59N 69°41' E 018°60'0 0.0
2019-Oct-10 09:29N 69°41' E 018°60'0 0.0
2019-Oct-10 08:59N 69°41' E 018°60'0 0.0
2019-Oct-10 08:29N 69°41' E 018°60'0 0.0
2019-Oct-10 07:59N 69°41' E 018°60'0 0.0
2019-Oct-10 07:29N 69°41' E 018°59'0 0.0
2019-Oct-10 06:59N 69°41' E 018°60'0 0.0
2019-Oct-10 06:29N 69°41' E 018°60'0 0.0
2019-Oct-10 05:59N 69°41' E 018°60'0 0.0
2019-Oct-10 05:29N 69°41' E 018°60'0 0.0
2019-Oct-10 04:59N 69°41' E 018°60'0 0.0
2019-Oct-10 04:29N 69°41' E 018°60'0 0.0
2019-Oct-10 03:59N 69°41' E 018°60'0 0.0
2019-Oct-10 03:29N 69°41' E 018°60'0 0.0
2019-Oct-10 02:59N 69°41' E 018°60'0 0.0
2019-Oct-10 02:29N 69°41' E 018°60'0 0.0
2019-Oct-10 01:59N 69°41' E 018°60'0 0.0
2019-Oct-10 01:29N 69°41' E 018°60'0 0.0
2019-Oct-10 00:59N 69°41' E 018°60'0 0.0
2019-Oct-10 00:29N 69°41' E 018°60'0 0.0
2019-Oct-09 23:59N 69°41' E 018°60'0 0.0
2019-Oct-09 23:29N 69°41' E 018°60'0 0.0
2019-Oct-09 22:59N 69°41' E 018°60'0 0.0
2019-Oct-09 22:29N 69°41' E 018°60'0 0.0
2019-Oct-09 21:59N 69°41' E 018°60'0 0.0
2019-Oct-09 21:29N 69°41' E 018°60'0 0.0
2019-Oct-09 20:59N 69°41' E 018°60'0 0.0
2019-Oct-09 20:29N 69°41' E 018°60'0 0.0
2019-Oct-09 19:59N 69°41' E 018°60'0 0.0
2019-Oct-09 19:29N 69°41' E 018°60'0 0.0
2019-Oct-09 18:59N 69°41' E 018°60'0 0.0
2019-Oct-09 18:29N 69°41' E 018°60'0 0.0
2019-Oct-09 17:59N 69°41' E 018°60'0 0.0
2019-Oct-09 17:29N 69°41' E 018°60'0 0.0
2019-Oct-09 16:59N 69°41' E 018°60'0 0.0
2019-Oct-09 16:29N 69°41' E 018°60'0 0.0
2019-Oct-09 15:59N 69°41' E 018°60'0 0.0
2019-Oct-09 15:29N 69°41' E 018°60'0 0.0
2019-Oct-09 14:59N 69°41' E 018°60'0 0.0
2019-Oct-09 14:29N 69°41' E 018°60'0 0.0
2019-Oct-09 13:59N 69°41' E 018°60'0 0.0
2019-Oct-09 13:29N 69°41' E 018°60'0 0.0
2019-Oct-09 12:59N 69°41' E 018°60'0 0.0
2019-Oct-09 12:29N 69°41' E 018°60'0 0.0
2019-Oct-09 11:59N 69°41' E 018°60'0 0.0
2019-Oct-09 11:29N 69°41' E 018°60'0 0.0
2019-Oct-09 10:59N 69°41' E 018°60'0 0.0
2019-Oct-09 10:29N 69°41' E 018°60'0 0.0
2019-Oct-09 09:59N 69°41' E 018°60'0 0.0
2019-Oct-09 09:29N 69°41' E 018°60'0 0.0
2019-Oct-09 08:59N 69°41' E 018°60'0 0.0
2019-Oct-09 08:29N 69°41' E 018°60'0 0.0
2019-Oct-09 08:00N 69°41' E 018°60'0 0.2
2019-Oct-09 07:30N 69°41' E 018°60'4 7.4
2019-Oct-09 07:00N 69°44' E 019°04'612.2
2019-Oct-09 06:30N 69°48' E 019°18'713.9
2019-Oct-09 06:00N 69°50' E 019°37'611.3
2019-Oct-09 05:30N 69°53' E 019°50'611.8
2019-Oct-09 04:59N 69°58' E 019°60'612.2
2019-Oct-09 04:30N 70°03' E 020°09'612.5
2019-Oct-09 04:00N 70°09' E 020°16'713.0
2019-Oct-09 03:30N 70°16' E 020°22'713.7
2019-Oct-09 03:00N 70°22' E 020°20'612.1
2019-Oct-09 02:30N 70°28' E 020°13'713.2
2019-Oct-09 02:00N 70°27' E 019°52'612.6
2019-Oct-09 01:30N 70°26' E 019°34'4 8.8
2019-Oct-09 01:00N 70°30' E 019°25'611.5
2019-Oct-09 00:30N 70°35' E 019°26'611.5
2019-Oct-09 00:00N 70°41' E 019°23'611.6
2019-Oct-08 23:30N 70°47' E 019°21'611.6
2019-Oct-08 23:00N 70°53' E 019°20'611.6
2019-Oct-08 22:30N 70°59' E 019°20'611.4
2019-Oct-08 22:00N 71°04' E 019°14'611.3
2019-Oct-08 21:28N 71°09' E 019°04'16811.1
2019-Oct-08 06:16N 73°56' E 017°55'311.1
2019-Oct-08 06:00N 73°58' E 017°51'611.2
2019-Oct-08 05:30N 74°04' E 017°43'611.2
2019-Oct-08 05:00N 74°09' E 017°36'511.2
2019-Oct-08 04:30N 74°14' E 017°28'611.2
2019-Oct-08 04:00N 74°19' E 017°20'611.4
2019-Oct-08 03:30N 74°24' E 017°13'611.5
2019-Oct-08 03:00N 74°30' E 017°04'611.6
2019-Oct-08 02:30N 74°35' E 016°56'611.9
2019-Oct-08 02:00N 74°41' E 016°48'612.0
2019-Oct-08 01:30N 74°46' E 016°39'10911.6
2019-Oct-07 16:04N 76°27' E 013°55'210.8
2019-Oct-07 15:52N 76°29' E 013°52'410.9
2019-Oct-07 15:30N 76°33' E 013°45'3 6.0
2019-Oct-07 15:00N 76°36' E 013°40'1 1.7
2019-Oct-07 14:30N 76°35' E 013°42'0 0.5
2019-Oct-07 13:37N 76°35' E 013°44'6 9.1
2019-Oct-07 12:58N 76°39' E 014°03'1 2.6
2019-Oct-07 12:28N 76°40' E 014°07'1 1.6
2019-Oct-07 12:00N 76°40' E 014°10'510.5
2019-Oct-07 11:30N 76°36' E 014°25'2 4.2
2019-Oct-07 11:00N 76°35' E 014°32'3 5.9
2019-Oct-07 10:30N 76°32' E 014°37'5 9.5
2019-Oct-07 09:59N 76°29' E 014°53'2 2.8
2019-Oct-07 09:25N 76°28' E 014°58'1 2.9
2019-Oct-07 09:00N 76°28' E 014°53'510.1
2019-Oct-07 08:30N 76°28' E 014°32'510.6
2019-Oct-07 08:00N 76°28' E 014°09'1 1.0
2019-Oct-07 07:08N 76°29' E 014°07'0 0.5
2019-Oct-07 06:55N 76°29' E 014°07'1 1.3
2019-Oct-07 06:30N 76°29' E 014°10'1 1.0
2019-Oct-07 05:57N 76°29' E 014°07'0 0.6
2019-Oct-07 05:26N 76°29' E 014°07'3 0.2
2019-Oct-06 16:03N 76°27' E 013°59'1 5.7
2019-Oct-06 15:49N 76°28' E 014°03'0 0.0
2019-Oct-06 15:05N 76°28' E 014°03'0 0.2
2019-Oct-06 15:00N 76°28' E 014°03'1 2.0
2019-Oct-06 14:30N 76°29' E 014°06'0 0.1
2019-Oct-06 13:59N 76°29' E 014°06'1 2.2
2019-Oct-06 13:30N 76°29' E 014°09'0 0.1
2019-Oct-06 13:00N 76°29' E 014°09'1 2.2
2019-Oct-06 12:30N 76°30' E 014°12'1 2.2
2019-Oct-06 11:59N 76°31' E 014°16'0 0.3
2019-Oct-06 11:30N 76°31' E 014°16'1 1.9
2019-Oct-06 11:00N 76°32' E 014°19'1 2.1
2019-Oct-06 10:29N 76°32' E 014°22'1 2.3
2019-Oct-06 10:00N 76°33' E 014°26'0 0.1
2019-Oct-06 09:30N 76°33' E 014°26'1 2.1
2019-Oct-06 09:00N 76°34' E 014°29'0 0.0
2019-Oct-06 08:30N 76°34' E 014°29'1 2.3
2019-Oct-06 08:00N 76°35' E 014°33'1 2.1
2019-Oct-06 07:30N 76°35' E 014°36'0 0.7
2019-Oct-06 07:00N 76°36' E 014°37'1 1.3
2019-Oct-06 06:30N 76°36' E 014°39'1 2.0
2019-Oct-06 06:00N 76°37' E 014°42'1 1.3
2019-Oct-06 05:30N 76°37' E 014°44'0 0.8
2019-Oct-06 05:00N 76°37' E 014°45'1 2.0
2019-Oct-06 04:29N 76°38' E 014°49'0 0.3
2019-Oct-06 04:00N 76°38' E 014°49'1 1.8
2019-Oct-06 03:30N 76°39' E 014°52'1 1.7
2019-Oct-06 03:00N 76°39' E 014°55'0 0.4
2019-Oct-06 02:30N 76°40' E 014°55'2 3.4
2019-Oct-06 02:00N 76°40' E 014°48'611.3
2019-Oct-06 01:30N 76°40' E 014°23'3 6.3
2019-Oct-06 01:00N 76°41' E 014°10'1 1.6
2019-Oct-06 00:29N 76°40' E 014°07'0 0.4
2019-Oct-06 00:00N 76°40' E 014°07'1 1.9
2019-Oct-05 23:30N 76°39' E 014°04'1 1.9
2019-Oct-05 23:00N 76°39' E 014°01'1 1.9
2019-Oct-05 22:30N 76°38' E 013°58'0 0.1
2019-Oct-05 22:00N 76°38' E 013°58'1 1.9
2019-Oct-05 21:30N 76°37' E 013°55'0 1.0
2019-Oct-05 21:00N 76°37' E 013°53'0 0.9
2019-Oct-05 20:30N 76°37' E 013°52'1 1.9
2019-Oct-05 20:00N 76°36' E 013°49'0 0.4
2019-Oct-05 19:30N 76°36' E 013°49'1 1.5
2019-Oct-05 19:00N 76°35' E 013°46'0 0.1
2019-Oct-05 18:30N 76°35' E 013°47'1 2.0
2019-Oct-05 18:00N 76°35' E 013°44'0 0.0
2019-Oct-05 17:29N 76°35' E 013°44'1 1.4
2019-Oct-05 17:00N 76°34' E 013°46'5 9.6
2019-Oct-05 16:30N 76°30' E 013°59'5 9.7
2019-Oct-05 16:00N 76°27' E 014°12'6 2.1
2019-Oct-05 13:11N 76°24' E 014°35'0 0.9
2019-Oct-05 12:46N 76°24' E 014°36'0 0.0
2019-Oct-05 12:30N 76°24' E 014°36'1 2.3
2019-Oct-05 11:59N 76°25' E 014°39'1 2.1
2019-Oct-05 11:30N 76°26' E 014°43'0 0.5
2019-Oct-05 11:00N 76°26' E 014°43'1 2.3
2019-Oct-05 10:30N 76°27' E 014°47'1 1.4
2019-Oct-05 10:00N 76°27' E 014°49'1 1.1
2019-Oct-05 09:30N 76°28' E 014°51'1 2.0
2019-Oct-05 08:55N 76°28' E 014°54'0 0.7
2019-Oct-05 08:29N 76°29' E 014°53'4 8.5
2019-Oct-05 08:00N 76°32' E 014°42'1 1.9
2019-Oct-05 07:30N 76°33' E 014°45'2 4.5
2019-Oct-05 07:00N 76°34' E 014°54'0 0.7
2019-Oct-05 06:29N 76°33' E 014°53'2 4.9
2019-Oct-05 06:00N 76°32' E 014°59'612.1
2019-Oct-05 05:30N 76°27' E 015°15'11511.7
2019-Oct-04 19:40N 74°55' E 019°54'210.0
2019-Oct-04 19:30N 74°54' E 019°58'5 9.8
2019-Oct-04 19:00N 74°50' E 020°09'5 9.8
2019-Oct-04 18:30N 74°46' E 020°20'510.3
2019-Oct-04 17:59N 74°42' E 020°32'510.4
2019-Oct-04 17:30N 74°38' E 020°44'510.5
2019-Oct-04 17:00N 74°34' E 020°56'910.9
2019-Oct-04 16:09N 74°26' E 021°17'  

Dump ship's entire track history